sensor_id;sensor_type;location;lat;lon;timestamp;temperature;humidity
578;DHT22;275;48.492;9.214;2023-06-24T00:02:21;21.50;31.00
578;DHT22;275;48.492;9.214;2023-06-24T00:04:49;21.80;30.30
578;DHT22;275;48.492;9.214;2023-06-24T00:07:16;21.60;31.00
578;DHT22;275;48.492;9.214;2023-06-24T00:09:44;21.70;30.60
578;DHT22;275;48.492;9.214;2023-06-24T00:12:11;21.80;30.40
578;DHT22;275;48.492;9.214;2023-06-24T00:14:44;21.70;30.60
578;DHT22;275;48.492;9.214;2023-06-24T00:17:11;21.80;30.50
578;DHT22;275;48.492;9.214;2023-06-24T00:19:38;21.50;30.80
578;DHT22;275;48.492;9.214;2023-06-24T00:22:05;21.30;31.60
578;DHT22;275;48.492;9.214;2023-06-24T00:24:32;21.20;31.60
578;DHT22;275;48.492;9.214;2023-06-24T00:27:00;21.20;31.80
578;DHT22;275;48.492;9.214;2023-06-24T00:29:27;20.90;32.40
578;DHT22;275;48.492;9.214;2023-06-24T00:31:54;21.10;32.00
578;DHT22;275;48.492;9.214;2023-06-24T00:34:21;21.30;31.70
578;DHT22;275;48.492;9.214;2023-06-24T00:36:49;21.10;31.70
578;DHT22;275;48.492;9.214;2023-06-24T00:39:16;21.40;31.40
578;DHT22;275;48.492;9.214;2023-06-24T00:41:43;21.30;31.40
578;DHT22;275;48.492;9.214;2023-06-24T00:44:12;21.10;32.30
578;DHT22;275;48.492;9.214;2023-06-24T00:46:39;21.00;32.50
578;DHT22;275;48.492;9.214;2023-06-24T00:49:05;21.20;32.00
578;DHT22;275;48.492;9.214;2023-06-24T00:51:33;21.40;31.60
578;DHT22;275;48.492;9.214;2023-06-24T00:54:01;21.40;31.60
578;DHT22;275;48.492;9.214;2023-06-24T00:56:31;21.40;31.30
578;DHT22;275;48.492;9.214;2023-06-24T00:59:02;21.50;31.30
578;DHT22;275;48.492;9.214;2023-06-24T01:01:34;21.30;31.60
578;DHT22;275;48.492;9.214;2023-06-24T01:04:02;21.10;32.20
578;DHT22;275;48.492;9.214;2023-06-24T01:06:30;21.10;32.20
578;DHT22;275;48.492;9.214;2023-06-24T01:08:57;21.30;31.80
578;DHT22;275;48.492;9.214;2023-06-24T01:11:27;21.40;31.50
578;DHT22;275;48.492;9.214;2023-06-24T01:13:53;21.50;31.30
578;DHT22;275;48.492;9.214;2023-06-24T01:16:26;21.40;31.50
578;DHT22;275;48.492;9.214;2023-06-24T01:18:59;21.30;31.50
578;DHT22;275;48.492;9.214;2023-06-24T01:21:36;21.20;32.10
578;DHT22;275;48.492;9.214;2023-06-24T01:24:31;21.00;32.40
578;DHT22;275;48.492;9.214;2023-06-24T01:27:24;20.50;33.60
578;DHT22;275;48.492;9.214;2023-06-24T01:30:24;20.20;34.50
578;DHT22;275;48.492;9.214;2023-06-24T01:32:57;20.10;35.10
578;DHT22;275;48.492;9.214;2023-06-24T01:35:30;19.90;35.40
578;DHT22;275;48.492;9.214;2023-06-24T01:38:00;20.00;35.10
578;DHT22;275;48.492;9.214;2023-06-24T01:40:31;20.20;34.70
578;DHT22;275;48.492;9.214;2023-06-24T01:42:59;20.30;34.30
578;DHT22;275;48.492;9.214;2023-06-24T01:45:29;20.70;33.60
578;DHT22;275;48.492;9.214;2023-06-24T01:48:01;20.90;33.10
578;DHT22;275;48.492;9.214;2023-06-24T01:50:32;21.00;32.60
578;DHT22;275;48.492;9.214;2023-06-24T01:53:01;21.00;32.90
578;DHT22;275;48.492;9.214;2023-06-24T01:55:32;20.80;33.40
578;DHT22;275;48.492;9.214;2023-06-24T01:58:02;20.60;33.50
578;DHT22;275;48.492;9.214;2023-06-24T02:00:32;20.70;33.20
578;DHT22;275;48.492;9.214;2023-06-24T02:03:01;20.90;32.90
578;DHT22;275;48.492;9.214;2023-06-24T02:05:28;20.70;32.90
578;DHT22;275;48.492;9.214;2023-06-24T02:07:58;20.70;33.50
578;DHT22;275;48.492;9.214;2023-06-24T02:10:27;20.40;34.00
578;DHT22;275;48.492;9.214;2023-06-24T02:12:56;19.90;35.00
578;DHT22;275;48.492;9.214;2023-06-24T02:15:23;19.50;36.30
578;DHT22;275;48.492;9.214;2023-06-24T02:17:52;19.60;36.00
578;DHT22;275;48.492;9.214;2023-06-24T02:20:23;19.90;35.10
578;DHT22;275;48.492;9.214;2023-06-24T02:22:53;20.00;35.00
578;DHT22;275;48.492;9.214;2023-06-24T02:25:20;19.80;35.30
578;DHT22;275;48.492;9.214;2023-06-24T02:27:47;19.80;35.60
578;DHT22;275;48.492;9.214;2023-06-24T02:30:15;19.60;35.60
578;DHT22;275;48.492;9.214;2023-06-24T02:32:42;19.80;35.60
578;DHT22;275;48.492;9.214;2023-06-24T02:35:09;19.90;34.90
578;DHT22;275;48.492;9.214;2023-06-24T02:37:37;19.90;35.10
578;DHT22;275;48.492;9.214;2023-06-24T02:40:06;20.20;35.90
578;DHT22;275;48.492;9.214;2023-06-24T02:42:33;20.30;36.00
578;DHT22;275;48.492;9.214;2023-06-24T02:45:01;20.30;36.10
578;DHT22;275;48.492;9.214;2023-06-24T02:47:28;20.20;36.70
578;DHT22;275;48.492;9.214;2023-06-24T02:49:56;20.20;37.00
578;DHT22;275;48.492;9.214;2023-06-24T02:52:24;19.90;37.40
578;DHT22;275;48.492;9.214;2023-06-24T02:54:56;19.40;38.30
578;DHT22;275;48.492;9.214;2023-06-24T02:57:23;18.90;40.30
578;DHT22;275;48.492;9.214;2023-06-24T02:59:51;18.50;40.80
578;DHT22;275;48.492;9.214;2023-06-24T03:02:18;17.80;43.20
578;DHT22;275;48.492;9.214;2023-06-24T03:04:45;17.60;43.90
578;DHT22;275;48.492;9.214;2023-06-24T03:07:12;18.00;43.00
578;DHT22;275;48.492;9.214;2023-06-24T03:09:40;18.50;41.70
578;DHT22;275;48.492;9.214;2023-06-24T03:12:09;18.10;42.80
578;DHT22;275;48.492;9.214;2023-06-24T03:14:36;18.10;42.90
578;DHT22;275;48.492;9.214;2023-06-24T03:17:03;18.10;43.20
578;DHT22;275;48.492;9.214;2023-06-24T03:19:30;17.50;45.10
578;DHT22;275;48.492;9.214;2023-06-24T03:21:57;17.00;47.10
578;DHT22;275;48.492;9.214;2023-06-24T03:24:24;17.30;46.70
578;DHT22;275;48.492;9.214;2023-06-24T03:26:50;17.70;45.30
578;DHT22;275;48.492;9.214;2023-06-24T03:29:23;17.80;45.10
578;DHT22;275;48.492;9.214;2023-06-24T03:31:50;17.80;45.00
578;DHT22;275;48.492;9.214;2023-06-24T03:34:17;17.30;46.60
578;DHT22;275;48.492;9.214;2023-06-24T03:36:44;17.30;47.40
578;DHT22;275;48.492;9.214;2023-06-24T03:39:11;17.60;46.30
578;DHT22;275;48.492;9.214;2023-06-24T03:41:37;17.80;45.40
578;DHT22;275;48.492;9.214;2023-06-24T03:44:05;17.80;45.20
578;DHT22;275;48.492;9.214;2023-06-24T03:46:33;18.10;44.70
578;DHT22;275;48.492;9.214;2023-06-24T03:49:00;18.20;44.00
578;DHT22;275;48.492;9.214;2023-06-24T03:51:26;18.40;43.60
578;DHT22;275;48.492;9.214;2023-06-24T03:53:53;18.60;42.90
578;DHT22;275;48.492;9.214;2023-06-24T03:56:20;18.70;43.10
578;DHT22;275;48.492;9.214;2023-06-24T03:58:47;19.30;41.40
578;DHT22;275;48.492;9.214;2023-06-24T04:01:14;19.80;40.10
578;DHT22;275;48.492;9.214;2023-06-24T04:03:44;20.10;39.20
578;DHT22;275;48.492;9.214;2023-06-24T04:06:11;20.40;38.00
578;DHT22;275;48.492;9.214;2023-06-24T04:08:38;20.70;37.80
578;DHT22;275;48.492;9.214;2023-06-24T04:11:05;21.00;37.20
578;DHT22;275;48.492;9.214;2023-06-24T04:13:33;21.30;36.10
578;DHT22;275;48.492;9.214;2023-06-24T04:16:00;21.60;35.60
578;DHT22;275;48.492;9.214;2023-06-24T04:18:27;21.50;35.40
578;DHT22;275;48.492;9.214;2023-06-24T04:20:55;21.50;35.20
578;DHT22;275;48.492;9.214;2023-06-24T04:23:23;20.80;36.50
578;DHT22;275;48.492;9.214;2023-06-24T04:25:49;20.70;36.90
578;DHT22;275;48.492;9.214;2023-06-24T04:28:16;20.90;36.50
578;DHT22;275;48.492;9.214;2023-06-24T04:30:43;21.60;35.00
578;DHT22;275;48.492;9.214;2023-06-24T04:33:10;22.00;34.10
578;DHT22;275;48.492;9.214;2023-06-24T04:35:36;22.40;33.10
578;DHT22;275;48.492;9.214;2023-06-24T04:38:05;22.70;32.50
578;DHT22;275;48.492;9.214;2023-06-24T04:40:31;22.90;32.20
578;DHT22;275;48.492;9.214;2023-06-24T04:42:58;22.80;32.20
578;DHT22;275;48.492;9.214;2023-06-24T04:45:25;23.30;31.00
578;DHT22;275;48.492;9.214;2023-06-24T04:47:52;23.60;30.30
578;DHT22;275;48.492;9.214;2023-06-24T04:50:19;23.50;30.60
578;DHT22;275;48.492;9.214;2023-06-24T04:52:52;23.50;30.60
578;DHT22;275;48.492;9.214;2023-06-24T04:55:21;23.60;30.20
578;DHT22;275;48.492;9.214;2023-06-24T04:57:48;23.50;30.60
578;DHT22;275;48.492;9.214;2023-06-24T05:00:15;23.70;30.00
578;DHT22;275;48.492;9.214;2023-06-24T05:02:42;23.60;30.00
578;DHT22;275;48.492;9.214;2023-06-24T05:05:10;23.60;30.40
578;DHT22;275;48.492;9.214;2023-06-24T05:07:37;24.00;29.70
578;DHT22;275;48.492;9.214;2023-06-24T05:10:05;24.50;28.90
578;DHT22;275;48.492;9.214;2023-06-24T05:12:33;24.20;29.30
578;DHT22;275;48.492;9.214;2023-06-24T05:15:00;24.20;29.30
578;DHT22;275;48.492;9.214;2023-06-24T05:17:27;24.60;28.70
578;DHT22;275;48.492;9.214;2023-06-24T05:19:54;25.00;28.10
578;DHT22;275;48.492;9.214;2023-06-24T05:22:20;25.00;28.00
578;DHT22;275;48.492;9.214;2023-06-24T05:24:47;25.00;28.70
578;DHT22;275;48.492;9.214;2023-06-24T05:27:14;25.10;28.00
578;DHT22;275;48.492;9.214;2023-06-24T05:29:42;25.40;27.50
578;DHT22;275;48.492;9.214;2023-06-24T05:32:09;25.30;28.20
578;DHT22;275;48.492;9.214;2023-06-24T05:34:36;25.50;27.60
578;DHT22;275;48.492;9.214;2023-06-24T05:37:03;26.00;27.00
578;DHT22;275;48.492;9.214;2023-06-24T05:39:30;26.80;25.70
578;DHT22;275;48.492;9.214;2023-06-24T05:41:57;26.70;25.40
578;DHT22;275;48.492;9.214;2023-06-24T05:44:24;26.50;26.10
578;DHT22;275;48.492;9.214;2023-06-24T05:46:52;27.00;25.30
578;DHT22;275;48.492;9.214;2023-06-24T05:49:19;27.80;24.20
578;DHT22;275;48.492;9.214;2023-06-24T05:51:46;27.40;24.50
578;DHT22;275;48.492;9.214;2023-06-24T05:54:13;28.20;23.60
578;DHT22;275;48.492;9.214;2023-06-24T05:56:39;28.80;22.90
578;DHT22;275;48.492;9.214;2023-06-24T05:59:06;29.40;22.00
578;DHT22;275;48.492;9.214;2023-06-24T06:01:33;29.20;22.00
578;DHT22;275;48.492;9.214;2023-06-24T06:04:02;28.80;22.30
578;DHT22;275;48.492;9.214;2023-06-24T06:06:29;29.20;21.80
578;DHT22;275;48.492;9.214;2023-06-24T06:08:56;29.50;21.50
578;DHT22;275;48.492;9.214;2023-06-24T06:11:23;29.70;21.40
578;DHT22;275;48.492;9.214;2023-06-24T06:13:50;30.30;20.60
578;DHT22;275;48.492;9.214;2023-06-24T06:16:17;30.20;20.40
578;DHT22;275;48.492;9.214;2023-06-24T06:18:44;29.60;21.10
578;DHT22;275;48.492;9.214;2023-06-24T06:21:13;29.20;21.60
578;DHT22;275;48.492;9.214;2023-06-24T06:23:39;29.50;20.80
578;DHT22;275;48.492;9.214;2023-06-24T06:26:06;29.20;21.30
578;DHT22;275;48.492;9.214;2023-06-24T06:28:33;29.50;21.00
578;DHT22;275;48.492;9.214;2023-06-24T06:31:00;29.60;20.70
578;DHT22;275;48.492;9.214;2023-06-24T06:33:27;29.90;20.60
578;DHT22;275;48.492;9.214;2023-06-24T06:35:53;31.10;19.20
578;DHT22;275;48.492;9.214;2023-06-24T06:38:21;30.90;19.50
578;DHT22;275;48.492;9.214;2023-06-24T06:40:49;31.20;19.00
578;DHT22;275;48.492;9.214;2023-06-24T06:43:15;31.40;18.60
578;DHT22;275;48.492;9.214;2023-06-24T06:45:42;30.50;19.40
578;DHT22;275;48.492;9.214;2023-06-24T06:48:09;30.30;19.90
578;DHT22;275;48.492;9.214;2023-06-24T06:50:36;29.50;20.50
578;DHT22;275;48.492;9.214;2023-06-24T06:53:02;30.10;19.90
578;DHT22;275;48.492;9.214;2023-06-24T06:55:31;29.70;20.00
578;DHT22;275;48.492;9.214;2023-06-24T06:57:57;29.10;20.80
578;DHT22;275;48.492;9.214;2023-06-24T07:00:24;28.30;21.60
578;DHT22;275;48.492;9.214;2023-06-24T07:02:51;27.40;22.50
578;DHT22;275;48.492;9.214;2023-06-24T07:05:18;27.30;22.70
578;DHT22;275;48.492;9.214;2023-06-24T07:07:45;26.70;24.00
578;DHT22;275;48.492;9.214;2023-06-24T07:10:12;26.50;24.30
578;DHT22;275;48.492;9.214;2023-06-24T07:12:40;26.10;24.80
578;DHT22;275;48.492;9.214;2023-06-24T07:15:07;26.10;24.80
578;DHT22;275;48.492;9.214;2023-06-24T07:17:34;25.60;25.60
578;DHT22;275;48.492;9.214;2023-06-24T07:20:01;25.70;25.40
578;DHT22;275;48.492;9.214;2023-06-24T07:24:56;27.10;23.80
578;DHT22;275;48.492;9.214;2023-06-24T07:27:23;29.50;21.20
578;DHT22;275;48.492;9.214;2023-06-24T07:29:51;31.80;18.50
578;DHT22;275;48.492;9.214;2023-06-24T07:32:18;32.30;17.40
578;DHT22;275;48.492;9.214;2023-06-24T07:34:45;33.00;16.80
578;DHT22;275;48.492;9.214;2023-06-24T07:37:12;34.10;15.30
578;DHT22;275;48.492;9.214;2023-06-24T07:39:39;33.60;15.10
578;DHT22;275;48.492;9.214;2023-06-24T07:42:06;34.10;15.30
578;DHT22;275;48.492;9.214;2023-06-24T07:44:33;35.00;13.70
578;DHT22;275;48.492;9.214;2023-06-24T07:47:03;35.40;14.00
578;DHT22;275;48.492;9.214;2023-06-24T07:49:31;35.10;13.60
578;DHT22;275;48.492;9.214;2023-06-24T07:51:58;34.00;14.10
578;DHT22;275;48.492;9.214;2023-06-24T07:54:25;33.00;14.80
578;DHT22;275;48.492;9.214;2023-06-24T07:56:51;33.20;14.80
578;DHT22;275;48.492;9.214;2023-06-24T07:59:18;34.70;13.20
578;DHT22;275;48.492;9.214;2023-06-24T08:01:45;36.60;12.00
578;DHT22;275;48.492;9.214;2023-06-24T08:04:14;37.30;10.70
578;DHT22;275;48.492;9.214;2023-06-24T08:06:41;37.50;10.50
578;DHT22;275;48.492;9.214;2023-06-24T08:09:08;38.50;9.40
578;DHT22;275;48.492;9.214;2023-06-24T08:11:35;38.80;9.00
578;DHT22;275;48.492;9.214;2023-06-24T08:14:02;38.40;9.40
578;DHT22;275;48.492;9.214;2023-06-24T08:16:29;38.50;9.00
578;DHT22;275;48.492;9.214;2023-06-24T08:18:56;38.70;8.80
578;DHT22;275;48.492;9.214;2023-06-24T08:21:24;40.20;7.60
578;DHT22;275;48.492;9.214;2023-06-24T08:23:51;40.30;7.50
578;DHT22;275;48.492;9.214;2023-06-24T08:26:19;39.30;8.30
578;DHT22;275;48.492;9.214;2023-06-24T08:28:47;38.80;8.60
578;DHT22;275;48.492;9.214;2023-06-24T08:31:33;39.10;8.70
578;DHT22;275;48.492;9.214;2023-06-24T08:34:17;39.60;7.60
578;DHT22;275;48.492;9.214;2023-06-24T08:36:45;39.30;7.60
578;DHT22;275;48.492;9.214;2023-06-24T08:39:12;38.40;8.20
578;DHT22;275;48.492;9.214;2023-06-24T08:41:39;38.50;7.90
578;DHT22;275;48.492;9.214;2023-06-24T08:44:06;37.80;9.00
578;DHT22;275;48.492;9.214;2023-06-24T08:46:33;38.00;9.00
578;DHT22;275;48.492;9.214;2023-06-24T08:49:11;36.30;9.40
578;DHT22;275;48.492;9.214;2023-06-24T08:51:41;32.80;12.70
578;DHT22;275;48.492;9.214;2023-06-24T08:54:10;31.70;14.40
578;DHT22;275;48.492;9.214;2023-06-24T08:56:37;33.40;12.60
578;DHT22;275;48.492;9.214;2023-06-24T08:59:05;32.20;13.90
578;DHT22;275;48.492;9.214;2023-06-24T09:01:32;32.00;13.90
578;DHT22;275;48.492;9.214;2023-06-24T09:03:59;32.00;14.10
578;DHT22;275;48.492;9.214;2023-06-24T09:06:26;32.00;14.00
578;DHT22;275;48.492;9.214;2023-06-24T09:08:53;32.30;14.00
578;DHT22;275;48.492;9.214;2023-06-24T09:11:26;34.30;12.20
578;DHT22;275;48.492;9.214;2023-06-24T09:13:56;35.20;11.50
578;DHT22;275;48.492;9.214;2023-06-24T09:16:23;37.10;9.80
578;DHT22;275;48.492;9.214;2023-06-24T09:18:51;39.50;7.40
578;DHT22;275;48.492;9.214;2023-06-24T09:21:22;40.20;6.40
578;DHT22;275;48.492;9.214;2023-06-24T09:23:54;38.60;7.60
578;DHT22;275;48.492;9.214;2023-06-24T09:26:24;37.60;9.70
578;DHT22;275;48.492;9.214;2023-06-24T09:28:52;38.00;9.20
578;DHT22;275;48.492;9.214;2023-06-24T09:31:20;35.00;10.40
578;DHT22;275;48.492;9.214;2023-06-24T09:33:48;33.40;12.20
578;DHT22;275;48.492;9.214;2023-06-24T09:36:16;35.20;10.60
578;DHT22;275;48.492;9.214;2023-06-24T09:38:43;33.90;11.50
578;DHT22;275;48.492;9.214;2023-06-24T09:41:11;35.40;10.30
578;DHT22;275;48.492;9.214;2023-06-24T09:43:40;36.80;9.10
578;DHT22;275;48.492;9.214;2023-06-24T09:46:09;37.30;6.70
578;DHT22;275;48.492;9.214;2023-06-24T09:48:36;38.00;6.30
578;DHT22;275;48.492;9.214;2023-06-24T09:51:04;37.00;6.20
578;DHT22;275;48.492;9.214;2023-06-24T09:53:31;37.90;7.00
578;DHT22;275;48.492;9.214;2023-06-24T09:55:59;38.30;6.20
578;DHT22;275;48.492;9.214;2023-06-24T09:58:28;39.70;5.30
578;DHT22;275;48.492;9.214;2023-06-24T10:01:02;38.10;5.80
578;DHT22;275;48.492;9.214;2023-06-24T10:03:30;35.80;7.60
578;DHT22;275;48.492;9.214;2023-06-24T10:05:59;34.80;7.60
578;DHT22;275;48.492;9.214;2023-06-24T10:08:27;36.40;6.90
578;DHT22;275;48.492;9.214;2023-06-24T10:10:54;38.00;5.60
578;DHT22;275;48.492;9.214;2023-06-24T10:13:20;39.50;4.10
578;DHT22;275;48.492;9.214;2023-06-24T10:15:48;38.00;5.30
578;DHT22;275;48.492;9.214;2023-06-24T10:18:36;36.40;6.60
578;DHT22;275;48.492;9.214;2023-06-24T10:21:04;35.70;7.60
578;DHT22;275;48.492;9.214;2023-06-24T10:23:33;34.40;8.50
578;DHT22;275;48.492;9.214;2023-06-24T10:26:00;34.50;9.20
578;DHT22;275;48.492;9.214;2023-06-24T10:28:27;35.50;8.50
578;DHT22;275;48.492;9.214;2023-06-24T10:31:14;36.80;7.80
578;DHT22;275;48.492;9.214;2023-06-24T10:33:42;35.40;8.40
578;DHT22;275;48.492;9.214;2023-06-24T10:36:31;32.10;11.30
578;DHT22;275;48.492;9.214;2023-06-24T10:38:58;30.50;12.10
578;DHT22;275;48.492;9.214;2023-06-24T10:41:25;29.30;13.30
578;DHT22;275;48.492;9.214;2023-06-24T10:43:56;31.40;11.40
578;DHT22;275;48.492;9.214;2023-06-24T10:46:26;34.80;7.50
578;DHT22;275;48.492;9.214;2023-06-24T10:48:54;37.00;6.20
578;DHT22;275;48.492;9.214;2023-06-24T10:51:22;37.20;6.40
578;DHT22;275;48.492;9.214;2023-06-24T10:53:49;37.70;5.20
578;DHT22;275;48.492;9.214;2023-06-24T10:56:18;37.90;4.70
578;DHT22;275;48.492;9.214;2023-06-24T10:58:55;36.00;5.90
578;DHT22;275;48.492;9.214;2023-06-24T11:01:22;36.00;5.70
578;DHT22;275;48.492;9.214;2023-06-24T11:03:49;35.00;6.90
578;DHT22;275;48.492;9.214;2023-06-24T11:06:17;32.60;9.50
578;DHT22;275;48.492;9.214;2023-06-24T11:08:44;31.30;11.20
578;DHT22;275;48.492;9.214;2023-06-24T11:11:19;31.80;10.70
578;DHT22;275;48.492;9.214;2023-06-24T11:13:48;33.00;9.70
578;DHT22;275;48.492;9.214;2023-06-24T11:16:20;33.20;9.30
578;DHT22;275;48.492;9.214;2023-06-24T11:18:47;32.50;9.60
578;DHT22;275;48.492;9.214;2023-06-24T11:21:14;34.40;8.40
578;DHT22;275;48.492;9.214;2023-06-24T11:23:43;36.50;6.50
578;DHT22;275;48.492;9.214;2023-06-24T11:26:09;37.20;5.60
578;DHT22;275;48.492;9.214;2023-06-24T11:28:37;37.20;5.80
578;DHT22;275;48.492;9.214;2023-06-24T11:31:06;37.50;5.30
578;DHT22;275;48.492;9.214;2023-06-24T11:33:33;38.50;4.80
578;DHT22;275;48.492;9.214;2023-06-24T11:36:00;41.70;2.80
578;DHT22;275;48.492;9.214;2023-06-24T11:38:28;42.50;2.40
578;DHT22;275;48.492;9.214;2023-06-24T11:40:59;41.90;2.90
578;DHT22;275;48.492;9.214;2023-06-24T11:43:25;41.90;2.60
578;DHT22;275;48.492;9.214;2023-06-24T11:45:53;40.50;3.10
578;DHT22;275;48.492;9.214;2023-06-24T11:48:20;38.30;4.90
578;DHT22;275;48.492;9.214;2023-06-24T11:50:53;38.10;4.80
578;DHT22;275;48.492;9.214;2023-06-24T11:53:29;39.60;3.70
578;DHT22;275;48.492;9.214;2023-06-24T11:55:56;41.50;2.10
578;DHT22;275;48.492;9.214;2023-06-24T11:58:24;42.70;1.50
578;DHT22;275;48.492;9.214;2023-06-24T12:00:51;39.30;3.60
578;DHT22;275;48.492;9.214;2023-06-24T12:03:22;40.00;2.60
578;DHT22;275;48.492;9.214;2023-06-24T12:05:50;40.50;2.20
578;DHT22;275;48.492;9.214;2023-06-24T12:08:18;41.00;2.50
578;DHT22;275;48.492;9.214;2023-06-24T12:10:45;42.40;1.80
578;DHT22;275;48.492;9.214;2023-06-24T12:13:12;43.30;1.70
578;DHT22;275;48.492;9.214;2023-06-24T12:15:41;42.30;2.40
578;DHT22;275;48.492;9.214;2023-06-24T12:18:08;41.60;2.10
578;DHT22;275;48.492;9.214;2023-06-24T12:20:35;39.90;3.70
578;DHT22;275;48.492;9.214;2023-06-24T12:23:03;39.00;3.90
578;DHT22;275;48.492;9.214;2023-06-24T12:25:30;40.20;3.40
578;DHT22;275;48.492;9.214;2023-06-24T12:27:56;40.30;2.90
578;DHT22;275;48.492;9.214;2023-06-24T12:30:25;39.00;4.10
578;DHT22;275;48.492;9.214;2023-06-24T12:32:53;38.80;4.40
578;DHT22;275;48.492;9.214;2023-06-24T12:35:20;40.30;3.40
578;DHT22;275;48.492;9.214;2023-06-24T12:37:46;38.70;5.10
578;DHT22;275;48.492;9.214;2023-06-24T12:40:14;38.60;4.20
578;DHT22;275;48.492;9.214;2023-06-24T12:42:41;38.10;4.80
578;DHT22;275;48.492;9.214;2023-06-24T12:45:08;36.90;6.00
578;DHT22;275;48.492;9.214;2023-06-24T12:47:35;34.70;8.00
578;DHT22;275;48.492;9.214;2023-06-24T12:50:04;33.70;7.50
578;DHT22;275;48.492;9.214;2023-06-24T12:52:32;32.20;8.80
578;DHT22;275;48.492;9.214;2023-06-24T12:54:59;33.20;8.10
578;DHT22;275;48.492;9.214;2023-06-24T12:57:25;34.10;7.40
578;DHT22;275;48.492;9.214;2023-06-24T12:59:52;34.10;7.80
578;DHT22;275;48.492;9.214;2023-06-24T13:02:19;34.40;7.50
578;DHT22;275;48.492;9.214;2023-06-24T13:04:47;32.70;8.90
578;DHT22;275;48.492;9.214;2023-06-24T13:07:15;31.90;9.40
578;DHT22;275;48.492;9.214;2023-06-24T13:09:42;31.20;10.30
578;DHT22;275;48.492;9.214;2023-06-24T13:12:09;31.10;10.50
578;DHT22;275;48.492;9.214;2023-06-24T13:14:36;31.20;10.70
578;DHT22;275;48.492;9.214;2023-06-24T13:17:03;31.80;10.30
578;DHT22;275;48.492;9.214;2023-06-24T13:19:30;31.40;10.40
578;DHT22;275;48.492;9.214;2023-06-24T13:21:57;30.70;11.40
578;DHT22;275;48.492;9.214;2023-06-24T13:24:26;30.00;12.40
578;DHT22;275;48.492;9.214;2023-06-24T13:26:52;29.90;11.20
578;DHT22;275;48.492;9.214;2023-06-24T13:29:19;29.80;12.00
578;DHT22;275;48.492;9.214;2023-06-24T13:31:46;29.60;12.50
578;DHT22;275;48.492;9.214;2023-06-24T13:34:13;29.50;12.40
578;DHT22;275;48.492;9.214;2023-06-24T13:36:40;29.80;12.00
578;DHT22;275;48.492;9.214;2023-06-24T13:39:08;29.70;12.60
578;DHT22;275;48.492;9.214;2023-06-24T13:41:39;29.20;12.70
578;DHT22;275;48.492;9.214;2023-06-24T13:44:06;28.50;13.40
578;DHT22;275;48.492;9.214;2023-06-24T13:46:32;28.20;14.10
578;DHT22;275;48.492;9.214;2023-06-24T13:48:59;28.70;13.70
578;DHT22;275;48.492;9.214;2023-06-24T13:51:26;28.80;13.60
578;DHT22;275;48.492;9.214;2023-06-24T13:53:54;28.80;13.60
578;DHT22;275;48.492;9.214;2023-06-24T13:56:22;28.90;13.30
578;DHT22;275;48.492;9.214;2023-06-24T13:58:52;28.90;13.20
578;DHT22;275;48.492;9.214;2023-06-24T14:01:19;29.20;13.00
578;DHT22;275;48.492;9.214;2023-06-24T14:03:46;29.20;12.80
578;DHT22;275;48.492;9.214;2023-06-24T14:06:15;29.10;12.00
578;DHT22;275;48.492;9.214;2023-06-24T14:08:42;29.80;12.10
578;DHT22;275;48.492;9.214;2023-06-24T14:11:09;29.90;11.60
578;DHT22;275;48.492;9.214;2023-06-24T14:13:36;29.30;12.80
578;DHT22;275;48.492;9.214;2023-06-24T14:16:05;28.80;13.50
578;DHT22;275;48.492;9.214;2023-06-24T14:18:32;28.80;13.30
578;DHT22;275;48.492;9.214;2023-06-24T14:21:00;29.40;12.60
578;DHT22;275;48.492;9.214;2023-06-24T14:23:28;30.20;11.80
578;DHT22;275;48.492;9.214;2023-06-24T14:25:55;30.40;11.60
578;DHT22;275;48.492;9.214;2023-06-24T14:28:22;30.20;12.00
578;DHT22;275;48.492;9.214;2023-06-24T14:30:49;29.20;13.20
578;DHT22;275;48.492;9.214;2023-06-24T14:33:18;28.60;13.70
578;DHT22;275;48.492;9.214;2023-06-24T14:35:45;28.60;13.90
578;DHT22;275;48.492;9.214;2023-06-24T14:38:12;28.60;13.60
578;DHT22;275;48.492;9.214;2023-06-24T14:40:38;28.80;13.50
578;DHT22;275;48.492;9.214;2023-06-24T14:43:05;28.70;13.30
578;DHT22;275;48.492;9.214;2023-06-24T14:45:32;29.20;13.30
578;DHT22;275;48.492;9.214;2023-06-24T14:47:59;28.90;13.50
578;DHT22;275;48.492;9.214;2023-06-24T14:50:27;29.20;13.30
578;DHT22;275;48.492;9.214;2023-06-24T14:52:54;28.60;13.50
578;DHT22;275;48.492;9.214;2023-06-24T14:55:21;28.90;13.00
578;DHT22;275;48.492;9.214;2023-06-24T14:57:48;28.90;11.90
578;DHT22;275;48.492;9.214;2023-06-24T15:00:15;29.30;12.10
578;DHT22;275;48.492;9.214;2023-06-24T15:02:42;28.70;13.40
578;DHT22;275;48.492;9.214;2023-06-24T15:05:09;28.60;13.70
578;DHT22;275;48.492;9.214;2023-06-24T15:07:37;29.00;13.00
578;DHT22;275;48.492;9.214;2023-06-24T15:10:05;29.30;13.00
578;DHT22;275;48.492;9.214;2023-06-24T15:12:32;29.30;12.90
578;DHT22;275;48.492;9.214;2023-06-24T15:15:00;29.50;13.50
578;DHT22;275;48.492;9.214;2023-06-24T15:17:27;29.60;12.80
578;DHT22;275;48.492;9.214;2023-06-24T15:19:55;29.20;13.60
578;DHT22;275;48.492;9.214;2023-06-24T15:22:22;28.80;14.10
578;DHT22;275;48.492;9.214;2023-06-24T15:24:50;28.40;14.60
578;DHT22;275;48.492;9.214;2023-06-24T15:27:17;28.80;14.20
578;DHT22;275;48.492;9.214;2023-06-24T15:29:43;29.30;13.40
578;DHT22;275;48.492;9.214;2023-06-24T15:32:10;29.80;12.30
578;DHT22;275;48.492;9.214;2023-06-24T15:34:37;29.10;12.70
578;DHT22;275;48.492;9.214;2023-06-24T15:37:04;29.00;12.80
578;DHT22;275;48.492;9.214;2023-06-24T15:39:31;29.50;12.40
578;DHT22;275;48.492;9.214;2023-06-24T15:41:59;29.90;12.30
578;DHT22;275;48.492;9.214;2023-06-24T15:44:26;29.40;12.90
578;DHT22;275;48.492;9.214;2023-06-24T15:46:54;28.60;13.50
578;DHT22;275;48.492;9.214;2023-06-24T15:49:21;28.60;14.00
578;DHT22;275;48.492;9.214;2023-06-24T15:51:47;28.40;14.00
578;DHT22;275;48.492;9.214;2023-06-24T15:54:14;28.50;14.40
578;DHT22;275;48.492;9.214;2023-06-24T15:56:41;28.10;14.50
578;DHT22;275;48.492;9.214;2023-06-24T15:59:09;28.70;14.20
578;DHT22;275;48.492;9.214;2023-06-24T16:01:37;29.60;13.20
578;DHT22;275;48.492;9.214;2023-06-24T16:04:04;29.20;12.80
578;DHT22;275;48.492;9.214;2023-06-24T16:06:31;28.90;13.30
578;DHT22;275;48.492;9.214;2023-06-24T16:08:58;29.00;13.00
578;DHT22;275;48.492;9.214;2023-06-24T16:11:26;29.20;12.40
578;DHT22;275;48.492;9.214;2023-06-24T16:13:53;29.60;11.90
578;DHT22;275;48.492;9.214;2023-06-24T16:16:21;29.30;11.90
578;DHT22;275;48.492;9.214;2023-06-24T16:18:48;28.90;12.00
578;DHT22;275;48.492;9.214;2023-06-24T16:21:14;28.90;12.00
578;DHT22;275;48.492;9.214;2023-06-24T16:23:41;28.90;12.90
578;DHT22;275;48.492;9.214;2023-06-24T16:26:08;28.90;13.30
578;DHT22;275;48.492;9.214;2023-06-24T16:28:35;28.90;13.60
578;DHT22;275;48.492;9.214;2023-06-24T16:31:02;28.70;13.70
578;DHT22;275;48.492;9.214;2023-06-24T16:33:30;28.80;13.90
578;DHT22;275;48.492;9.214;2023-06-24T16:35:57;28.90;13.40
578;DHT22;275;48.492;9.214;2023-06-24T16:38:24;30.00;12.40
578;DHT22;275;48.492;9.214;2023-06-24T16:40:50;29.10;13.20
578;DHT22;275;48.492;9.214;2023-06-24T16:43:17;28.40;14.60
578;DHT22;275;48.492;9.214;2023-06-24T16:45:44;28.30;14.60
578;DHT22;275;48.492;9.214;2023-06-24T16:48:12;28.70;14.10